sensor_id;sensor_type;location;lat;lon;timestamp;temperature;humidity
19385;DHT22;9828;54.122;17.974;2023-08-01T00:01:14;17.60;99.90
19385;DHT22;9828;54.122;17.974;2023-08-01T00:06:35;17.60;1.00
19385;DHT22;9828;54.122;17.974;2023-08-01T00:11:56;17.60;1.00
19385;DHT22;9828;54.122;17.974;2023-08-01T00:17:17;17.60;99.50
19385;DHT22;9828;54.122;17.974;2023-08-01T00:22:38;17.60;1.00
19385;DHT22;9828;54.122;17.974;2023-08-01T00:27:59;17.50;99.90
19385;DHT22;9828;54.122;17.974;2023-08-01T00:33:21;17.40;1.00
19385;DHT22;9828;54.122;17.974;2023-08-01T00:38:42;17.30;1.00
19385;DHT22;9828;54.122;17.974;2023-08-01T00:44:04;17.30;1.00
19385;DHT22;9828;54.122;17.974;2023-08-01T00:49:25;17.30;1.00
19385;DHT22;9828;54.122;17.974;2023-08-01T00:54:47;17.20;1.00
19385;DHT22;9828;54.122;17.974;2023-08-01T01:00:09;17.20;1.00
19385;DHT22;9828;54.122;17.974;2023-08-01T01:05:36;17.10;1.00
19385;DHT22;9828;54.122;17.974;2023-08-01T01:10:59;17.10;1.00
19385;DHT22;9828;54.122;17.974;2023-08-01T01:16:20;17.10;1.00
19385;DHT22;9828;54.122;17.974;2023-08-01T01:21:42;17.10;1.00
19385;DHT22;9828;54.122;17.974;2023-08-01T01:27:04;17.10;1.00
19385;DHT22;9828;54.122;17.974;2023-08-01T01:32:26;17.10;1.00
19385;DHT22;9828;54.122;17.974;2023-08-01T01:37:48;17.10;1.00
19385;DHT22;9828;54.122;17.974;2023-08-01T01:43:09;17.00;1.00
19385;DHT22;9828;54.122;17.974;2023-08-01T01:48:30;17.00;1.00
19385;DHT22;9828;54.122;17.974;2023-08-01T01:53:52;17.10;1.00
19385;DHT22;9828;54.122;17.974;2023-08-01T01:59:13;17.10;1.00
19385;DHT22;9828;54.122;17.974;2023-08-01T02:04:34;17.00;1.00
19385;DHT22;9828;54.122;17.974;2023-08-01T02:09:56;17.10;1.00
19385;DHT22;9828;54.122;17.974;2023-08-01T02:15:17;17.00;1.00
19385;DHT22;9828;54.122;17.974;2023-08-01T02:20:38;17.10;1.00
19385;DHT22;9828;54.122;17.974;2023-08-01T02:25:59;17.10;1.00
19385;DHT22;9828;54.122;17.974;2023-08-01T02:31:20;17.10;99.90
19385;DHT22;9828;54.122;17.974;2023-08-01T02:36:42;17.00;99.90
19385;DHT22;9828;54.122;17.974;2023-08-01T02:42:03;17.00;99.90
19385;DHT22;9828;54.122;17.974;2023-08-01T02:47:24;17.00;99.90
19385;DHT22;9828;54.122;17.974;2023-08-01T02:52:46;17.00;99.90
19385;DHT22;9828;54.122;17.974;2023-08-01T02:58:07;17.00;89.60
19385;DHT22;9828;54.122;17.974;2023-08-01T03:03:28;17.10;99.90
19385;DHT22;9828;54.122;17.974;2023-08-01T03:08:49;17.10;23.70
19385;DHT22;9828;54.122;17.974;2023-08-01T03:14:12;17.10;1.00
19385;DHT22;9828;54.122;17.974;2023-08-01T03:19:33;17.10;1.00
19385;DHT22;9828;54.122;17.974;2023-08-01T03:24:55;17.10;1.00
19385;DHT22;9828;54.122;17.974;2023-08-01T03:30:16;17.10;1.00
19385;DHT22;9828;54.122;17.974;2023-08-01T03:35:37;17.20;1.00
19385;DHT22;9828;54.122;17.974;2023-08-01T03:40:59;17.10;1.00
19385;DHT22;9828;54.122;17.974;2023-08-01T03:46:21;17.10;61.30
19385;DHT22;9828;54.122;17.974;2023-08-01T03:51:42;17.10;1.00
19385;DHT22;9828;54.122;17.974;2023-08-01T03:57:03;17.10;69.50
19385;DHT22;9828;54.122;17.974;2023-08-01T04:02:27;17.10;99.90
19385;DHT22;9828;54.122;17.974;2023-08-01T04:07:48;17.00;99.90
19385;DHT22;9828;54.122;17.974;2023-08-01T04:13:09;17.10;99.90
19385;DHT22;9828;54.122;17.974;2023-08-01T04:18:30;17.10;99.90
19385;DHT22;9828;54.122;17.974;2023-08-01T04:23:51;17.00;1.00
19385;DHT22;9828;54.122;17.974;2023-08-01T04:29:13;17.10;1.00
19385;DHT22;9828;54.122;17.974;2023-08-01T04:34:36;17.00;1.00
19385;DHT22;9828;54.122;17.974;2023-08-01T04:39:57;16.90;1.00
19385;DHT22;9828;54.122;17.974;2023-08-01T04:45:18;16.90;1.00
19385;DHT22;9828;54.122;17.974;2023-08-01T04:50:39;16.90;1.00
19385;DHT22;9828;54.122;17.974;2023-08-01T04:56:01;16.90;1.00
19385;DHT22;9828;54.122;17.974;2023-08-01T05:01:22;17.00;1.00
19385;DHT22;9828;54.122;17.974;2023-08-01T05:06:43;17.00;1.00
19385;DHT22;9828;54.122;17.974;2023-08-01T05:12:05;17.00;1.00
19385;DHT22;9828;54.122;17.974;2023-08-01T05:17:26;17.00;1.00
19385;DHT22;9828;54.122;17.974;2023-08-01T05:22:47;17.00;1.00
19385;DHT22;9828;54.122;17.974;2023-08-01T05:28:09;17.00;1.00
19385;DHT22;9828;54.122;17.974;2023-08-01T05:33:30;17.00;1.00
19385;DHT22;9828;54.122;17.974;2023-08-01T05:38:52;17.00;1.00
19385;DHT22;9828;54.122;17.974;2023-08-01T05:44:13;16.90;1.00
19385;DHT22;9828;54.122;17.974;2023-08-01T05:49:34;17.00;62.30
19385;DHT22;9828;54.122;17.974;2023-08-01T05:54:55;17.10;56.70
19385;DHT22;9828;54.122;17.974;2023-08-01T06:00:16;17.00;58.90
19385;DHT22;9828;54.122;17.974;2023-08-01T06:05:38;17.10;99.90
19385;DHT22;9828;54.122;17.974;2023-08-01T06:10:59;17.10;99.90
19385;DHT22;9828;54.122;17.974;2023-08-01T06:16:20;17.10;99.90
19385;DHT22;9828;54.122;17.974;2023-08-01T06:21:41;17.10;99.90
19385;DHT22;9828;54.122;17.974;2023-08-01T06:27:03;17.10;72.70
19385;DHT22;9828;54.122;17.974;2023-08-01T06:32:26;17.10;50.90
19385;DHT22;9828;54.122;17.974;2023-08-01T06:37:47;17.10;37.30
19385;DHT22;9828;54.122;17.974;2023-08-01T06:43:09;17.10;90.80
19385;DHT22;9828;54.122;17.974;2023-08-01T06:48:31;17.00;92.90
19385;DHT22;9828;54.122;17.974;2023-08-01T06:53:55;16.90;99.90
19385;DHT22;9828;54.122;17.974;2023-08-01T06:59:17;16.90;99.90
19385;DHT22;9828;54.122;17.974;2023-08-01T07:04:38;16.90;99.90
19385;DHT22;9828;54.122;17.974;2023-08-01T07:09:59;16.80;99.90
19385;DHT22;9828;54.122;17.974;2023-08-01T07:15:20;16.90;99.90
19385;DHT22;9828;54.122;17.974;2023-08-01T07:20:42;16.80;99.90
19385;DHT22;9828;54.122;17.974;2023-08-01T07:26:03;16.90;99.90
19385;DHT22;9828;54.122;17.974;2023-08-01T07:31:25;17.00;99.90
19385;DHT22;9828;54.122;17.974;2023-08-01T07:36:48;17.00;99.90
19385;DHT22;9828;54.122;17.974;2023-08-01T07:42:12;17.10;99.90
19385;DHT22;9828;54.122;17.974;2023-08-01T07:47:33;17.10;99.90
19385;DHT22;9828;54.122;17.974;2023-08-01T07:52:54;17.10;99.90
19385;DHT22;9828;54.122;17.974;2023-08-01T07:58:16;17.20;99.90
19385;DHT22;9828;54.122;17.974;2023-08-01T08:03:37;17.30;99.90
19385;DHT22;9828;54.122;17.974;2023-08-01T08:08:58;17.30;99.90
19385;DHT22;9828;54.122;17.974;2023-08-01T08:14:19;17.20;99.90
19385;DHT22;9828;54.122;17.974;2023-08-01T08:19:42;17.10;99.90
19385;DHT22;9828;54.122;17.974;2023-08-01T08:25:03;17.20;99.90
19385;DHT22;9828;54.122;17.974;2023-08-01T08:30:25;17.10;99.90
19385;DHT22;9828;54.122;17.974;2023-08-01T08:35:46;17.10;99.90
19385;DHT22;9828;54.122;17.974;2023-08-01T08:41:26;17.20;99.90
19385;DHT22;9828;54.122;17.974;2023-08-01T08:46:52;17.20;99.90
19385;DHT22;9828;54.122;17.974;2023-08-01T08:52:14;17.20;99.90
19385;DHT22;9828;54.122;17.974;2023-08-01T08:57:35;17.20;99.90
19385;DHT22;9828;54.122;17.974;2023-08-01T09:02:57;17.20;99.90
19385;DHT22;9828;54.122;17.974;2023-08-01T09:08:20;17.10;99.90
19385;DHT22;9828;54.122;17.974;2023-08-01T09:13:43;17.20;99.90
19385;DHT22;9828;54.122;17.974;2023-08-01T09:19:05;17.20;99.90
19385;DHT22;9828;54.122;17.974;2023-08-01T09:24:27;17.20;99.90
19385;DHT22;9828;54.122;17.974;2023-08-01T09:29:48;17.20;99.90
19385;DHT22;9828;54.122;17.974;2023-08-01T09:35:09;17.20;99.90
19385;DHT22;9828;54.122;17.974;2023-08-01T09:40:37;17.20;99.90
19385;DHT22;9828;54.122;17.974;2023-08-01T09:45:59;17.10;99.90
19385;DHT22;9828;54.122;17.974;2023-08-01T09:51:20;17.10;99.90
19385;DHT22;9828;54.122;17.974;2023-08-01T09:56:44;17.20;99.90
19385;DHT22;9828;54.122;17.974;2023-08-01T10:02:09;17.20;99.90
19385;DHT22;9828;54.122;17.974;2023-08-01T10:07:38;17.20;99.90
19385;DHT22;9828;54.122;17.974;2023-08-01T10:13:02;17.20;99.90
19385;DHT22;9828;54.122;17.974;2023-08-01T10:18:23;17.30;99.90
19385;DHT22;9828;54.122;17.974;2023-08-01T10:23:46;17.30;99.90
19385;DHT22;9828;54.122;17.974;2023-08-01T10:29:08;17.40;99.90
19385;DHT22;9828;54.122;17.974;2023-08-01T10:34:29;17.50;99.90
19385;DHT22;9828;54.122;17.974;2023-08-01T10:40:00;17.50;99.90
19385;DHT22;9828;54.122;17.974;2023-08-01T10:45:23;17.50;99.90
19385;DHT22;9828;54.122;17.974;2023-08-01T10:50:54;17.50;99.90
19385;DHT22;9828;54.122;17.974;2023-08-01T10:56:19;17.50;99.90
19385;DHT22;9828;54.122;17.974;2023-08-01T11:01:51;17.60;99.90
19385;DHT22;9828;54.122;17.974;2023-08-01T11:07:13;17.60;99.90
19385;DHT22;9828;54.122;17.974;2023-08-01T11:12:38;17.70;99.90
19385;DHT22;9828;54.122;17.974;2023-08-01T11:17:59;17.60;99.90
19385;DHT22;9828;54.122;17.974;2023-08-01T11:23:28;17.60;99.90
19385;DHT22;9828;54.122;17.974;2023-08-01T11:28:50;17.60;99.90
19385;DHT22;9828;54.122;17.974;2023-08-01T11:34:12;17.70;99.90
19385;DHT22;9828;54.122;17.974;2023-08-01T11:39:34;17.80;99.90
19385;DHT22;9828;54.122;17.974;2023-08-01T11:45:07;18.00;99.90
19385;DHT22;9828;54.122;17.974;2023-08-01T11:50:29;18.00;99.90
19385;DHT22;9828;54.122;17.974;2023-08-01T11:55:50;18.00;99.90
19385;DHT22;9828;54.122;17.974;2023-08-01T12:01:14;18.00;99.90
19385;DHT22;9828;54.122;17.974;2023-08-01T12:06:35;18.00;99.90
19385;DHT22;9828;54.122;17.974;2023-08-01T12:11:59;18.00;99.90
19385;DHT22;9828;54.122;17.974;2023-08-01T12:17:26;17.90;99.90
19385;DHT22;9828;54.122;17.974;2023-08-01T12:22:47;17.80;99.90
19385;DHT22;9828;54.122;17.974;2023-08-01T12:28:08;17.80;99.90
19385;DHT22;9828;54.122;17.974;2023-08-01T12:33:30;17.80;99.90
19385;DHT22;9828;54.122;17.974;2023-08-01T12:38:51;17.90;99.90
19385;DHT22;9828;54.122;17.974;2023-08-01T12:44:12;17.90;99.90
19385;DHT22;9828;54.122;17.974;2023-08-01T12:49:36;17.80;99.90
19385;DHT22;9828;54.122;17.974;2023-08-01T12:54:59;17.90;99.90
19385;DHT22;9828;54.122;17.974;2023-08-01T13:00:20;18.00;99.90
19385;DHT22;9828;54.122;17.974;2023-08-01T13:05:42;18.10;99.90
19385;DHT22;9828;54.122;17.974;2023-08-01T13:11:10;18.20;99.90
19385;DHT22;9828;54.122;17.974;2023-08-01T13:16:32;18.30;99.90
19385;DHT22;9828;54.122;17.974;2023-08-01T13:21:53;18.40;99.90
19385;DHT22;9828;54.122;17.974;2023-08-01T13:27:14;18.40;99.90
19385;DHT22;9828;54.122;17.974;2023-08-01T13:32:36;18.40;99.90
19385;DHT22;9828;54.122;17.974;2023-08-01T13:37:57;18.50;99.90
19385;DHT22;9828;54.122;17.974;2023-08-01T13:43:18;18.50;99.90
19385;DHT22;9828;54.122;17.974;2023-08-01T13:48:40;18.60;99.90
19385;DHT22;9828;54.122;17.974;2023-08-01T13:54:01;18.60;99.90
19385;DHT22;9828;54.122;17.974;2023-08-01T13:59:23;18.50;99.90
19385;DHT22;9828;54.122;17.974;2023-08-01T14:04:44;18.40;99.90
19385;DHT22;9828;54.122;17.974;2023-08-01T14:10:06;18.50;99.90
19385;DHT22;9828;54.122;17.974;2023-08-01T14:15:27;18.50;99.90
19385;DHT22;9828;54.122;17.974;2023-08-01T14:20:49;18.70;99.90
19385;DHT22;9828;54.122;17.974;2023-08-01T14:26:10;18.90;99.90
19385;DHT22;9828;54.122;17.974;2023-08-01T14:31:31;19.10;99.90
19385;DHT22;9828;54.122;17.974;2023-08-01T14:36:52;19.20;99.90
19385;DHT22;9828;54.122;17.974;2023-08-01T14:42:14;19.20;66.00
19385;DHT22;9828;54.122;17.974;2023-08-01T14:47:35;19.20;92.10
19385;DHT22;9828;54.122;17.974;2023-08-01T14:52:58;19.30;69.10
19385;DHT22;9828;54.122;17.974;2023-08-01T14:58:19;19.30;26.10
19385;DHT22;9828;54.122;17.974;2023-08-01T15:03:40;19.30;58.00
19385;DHT22;9828;54.122;17.974;2023-08-01T15:09:01;19.30;1.00
19385;DHT22;9828;54.122;17.974;2023-08-01T15:14:22;19.20;1.00
19385;DHT22;9828;54.122;17.974;2023-08-01T15:19:44;19.20;1.00
19385;DHT22;9828;54.122;17.974;2023-08-01T15:25:05;19.10;1.00
19385;DHT22;9828;54.122;17.974;2023-08-01T15:30:27;19.00;1.00
19385;DHT22;9828;54.122;17.974;2023-08-01T15:35:49;19.00;1.00
19385;DHT22;9828;54.122;17.974;2023-08-01T15:41:10;19.10;1.00
19385;DHT22;9828;54.122;17.974;2023-08-01T15:46:32;19.20;26.40
19385;DHT22;9828;54.122;17.974;2023-08-01T15:51:53;19.20;40.20
19385;DHT22;9828;54.122;17.974;2023-08-01T15:57:15;19.10;96.30
19385;DHT22;9828;54.122;17.974;2023-08-01T16:02:36;19.10;81.30
19385;DHT22;9828;54.122;17.974;2023-08-01T16:07:58;19.00;57.50
19385;DHT22;9828;54.122;17.974;2023-08-01T16:13:19;19.00;93.40
19385;DHT22;9828;54.122;17.974;2023-08-01T16:18:41;19.00;90.80
19385;DHT22;9828;54.122;17.974;2023-08-01T16:24:02;19.00;94.60
19385;DHT22;9828;54.122;17.974;2023-08-01T16:29:23;18.90;99.90
19385;DHT22;9828;54.122;17.974;2023-08-01T16:34:45;18.90;99.90
19385;DHT22;9828;54.122;17.974;2023-08-01T16:40:06;19.00;99.90
19385;DHT22;9828;54.122;17.974;2023-08-01T16:45:28;19.00;66.10
19385;DHT22;9828;54.122;17.974;2023-08-01T16:50:49;18.90;99.90
19385;DHT22;9828;54.122;17.974;2023-08-01T16:56:10;18.90;93.00
19385;DHT22;9828;54.122;17.974;2023-08-01T17:01:32;18.80;99.90
19385;DHT22;9828;54.122;17.974;2023-08-01T17:06:53;18.90;99.90
19385;DHT22;9828;54.122;17.974;2023-08-01T17:12:14;18.80;99.90
19385;DHT22;9828;54.122;17.974;2023-08-01T17:17:36;18.70;99.90
19385;DHT22;9828;54.122;17.974;2023-08-01T17:22:57;18.70;99.90
19385;DHT22;9828;54.122;17.974;2023-08-01T17:28:18;18.70;99.90
19385;DHT22;9828;54.122;17.974;2023-08-01T17:33:40;18.60;99.90
19385;DHT22;9828;54.122;17.974;2023-08-01T17:39:01;18.50;99.90
19385;DHT22;9828;54.122;17.974;2023-08-01T17:44:22;18.50;99.90
19385;DHT22;9828;54.122;17.974;2023-08-01T17:49:44;18.50;99.90
19385;DHT22;9828;54.122;17.974;2023-08-01T17:55:06;18.40;99.90
19385;DHT22;9828;54.122;17.974;2023-08-01T18:00:28;18.40;99.90
19385;DHT22;9828;54.122;17.974;2023-08-01T18:05:50;18.30;99.90
19385;DHT22;9828;54.122;17.974;2023-08-01T18:11:13;18.30;99.90
19385;DHT22;9828;54.122;17.974;2023-08-01T18:16:34;18.20;99.90
19385;DHT22;9828;54.122;17.974;2023-08-01T18:21:55;18.10;99.90
19385;DHT22;9828;54.122;17.974;2023-08-01T18:27:17;18.00;99.90
19385;DHT22;9828;54.122;17.974;2023-08-01T18:32:37;18.00;99.90
19385;DHT22;9828;54.122;17.974;2023-08-01T18:37:59;17.90;99.90
19385;DHT22;9828;54.122;17.974;2023-08-01T18:43:20;17.80;99.90
19385;DHT22;9828;54.122;17.974;2023-08-01T18:48:41;17.80;99.90
19385;DHT22;9828;54.122;17.974;2023-08-01T18:54:03;17.70;99.90
19385;DHT22;9828;54.122;17.974;2023-08-01T18:59:25;17.70;99.90
19385;DHT22;9828;54.122;17.974;2023-08-01T19:04:47;17.70;99.90
19385;DHT22;9828;54.122;17.974;2023-08-01T19:10:08;17.60;99.90
19385;DHT22;9828;54.122;17.974;2023-08-01T19:15:30;17.60;99.90
19385;DHT22;9828;54.122;17.974;2023-08-01T19:20:52;17.50;99.90
19385;DHT22;9828;54.122;17.974;2023-08-01T19:26:13;17.50;99.90
19385;DHT22;9828;54.122;17.974;2023-08-01T19:31:34;17.50;99.90
19385;DHT22;9828;54.122;17.974;2023-08-01T19:36:55;17.50;99.90
19385;DHT22;9828;54.122;17.974;2023-08-01T19:42:18;17.50;99.90
19385;DHT22;9828;54.122;17.974;2023-08-01T19:47:40;17.40;99.90
19385;DHT22;9828;54.122;17.974;2023-08-01T19:53:01;17.30;99.90
19385;DHT22;9828;54.122;17.974;2023-08-01T19:58:22;17.30;99.90
19385;DHT22;9828;54.122;17.974;2023-08-01T20:03:43;17.20;99.90
19385;DHT22;9828;54.122;17.974;2023-08-01T20:09:05;17.10;99.90
19385;DHT22;9828;54.122;17.974;2023-08-01T20:14:26;17.10;99.90
19385;DHT22;9828;54.122;17.974;2023-08-01T20:19:47;17.00;99.90
19385;DHT22;9828;54.122;17.974;2023-08-01T20:25:09;17.00;99.90
19385;DHT22;9828;54.122;17.974;2023-08-01T20:30:32;16.90;99.90
19385;DHT22;9828;54.122;17.974;2023-08-01T20:35:56;16.90;99.90
19385;DHT22;9828;54.122;17.974;2023-08-01T20:41:18;16.80;99.90
19385;DHT22;9828;54.122;17.974;2023-08-01T20:46:39;16.80;99.90
19385;DHT22;9828;54.122;17.974;2023-08-01T20:52:00;16.80;99.90
19385;DHT22;9828;54.122;17.974;2023-08-01T20:57:21;16.60;99.90
19385;DHT22;9828;54.122;17.974;2023-08-01T21:02:43;16.60;99.90
19385;DHT22;9828;54.122;17.974;2023-08-01T21:08:04;16.60;99.90
19385;DHT22;9828;54.122;17.974;2023-08-01T21:13:25;16.50;99.90
19385;DHT22;9828;54.122;17.974;2023-08-01T21:18:47;16.50;99.90
19385;DHT22;9828;54.122;17.974;2023-08-01T21:24:09;16.50;99.90
19385;DHT22;9828;54.122;17.974;2023-08-01T21:29:30;16.50;99.90
19385;DHT22;9828;54.122;17.974;2023-08-01T21:34:51;16.50;99.90
19385;DHT22;9828;54.122;17.974;2023-08-01T21:40:15;16.50;99.90
19385;DHT22;9828;54.122;17.974;2023-08-01T21:45:36;16.60;99.90
19385;DHT22;9828;54.122;17.974;2023-08-01T21:50:58;16.60;99.90
19385;DHT22;9828;54.122;17.974;2023-08-01T21:56:19;16.60;99.90
19385;DHT22;9828;54.122;17.974;2023-08-01T22:01:40;16.60;99.90
19385;DHT22;9828;54.122;17.974;2023-08-01T22:07:01;16.60;99.90
19385;DHT22;9828;54.122;17.974;2023-08-01T22:12:22;16.60;99.90
19385;DHT22;9828;54.122;17.974;2023-08-01T22:17:43;16.60;99.90
19385;DHT22;9828;54.122;17.974;2023-08-01T22:23:04;16.60;99.90
19385;DHT22;9828;54.122;17.974;2023-08-01T22:28:29;16.60;99.90
19385;DHT22;9828;54.122;17.974;2023-08-01T22:33:50;16.70;99.90
19385;DHT22;9828;54.122;17.974;2023-08-01T22:39:14;16.60;99.90
19385;DHT22;9828;54.122;17.974;2023-08-01T22:44:36;16.60;99.90
19385;DHT22;9828;54.122;17.974;2023-08-01T22:49:57;16.60;99.90
19385;DHT22;9828;54.122;17.974;2023-08-01T22:55:24;16.60;99.90
19385;DHT22;9828;54.122;17.974;2023-08-01T23:00:45;16.50;99.90
19385;DHT22;9828;54.122;17.974;2023-08-01T23:06:07;16.40;99.90
19385;DHT22;9828;54.122;17.974;2023-08-01T23:11:29;16.30;99.90
19385;DHT22;9828;54.122;17.974;2023-08-01T23:16:54;16.20;99.90
19385;DHT22;9828;54.122;17.974;2023-08-01T23:22:16;16.20;99.90
19385;DHT22;9828;54.122;17.974;2023-08-01T23:27:38;16.10;99.90
19385;DHT22;9828;54.122;17.974;2023-08-01T23:32:59;16.10;99.90
19385;DHT22;9828;54.122;17.974;2023-08-01T23:38:24;16.10;99.90
19385;DHT22;9828;54.122;17.974;2023-08-01T23:43:47;16.10;99.90
19385;DHT22;9828;54.122;17.974;2023-08-01T23:49:09;16.00;99.90
19385;DHT22;9828;54.122;17.974;2023-08-01T23:54:31;16.00;99.90
19385;DHT22;9828;54.122;17.974;2023-08-01T23:59:53;16.00;99.90
